createdAt,value
2018-05-26T00:01:28.730Z,14.80
2018-05-26T00:03:56.321Z,14.80
2018-05-26T00:06:23.960Z,14.80
2018-05-26T00:08:51.534Z,14.70
2018-05-26T00:11:19.162Z,14.70
2018-05-26T00:13:46.766Z,14.70
2018-05-26T00:16:14.360Z,14.70
2018-05-26T00:18:41.985Z,14.70
2018-05-26T00:21:09.581Z,14.70
2018-05-26T00:23:37.220Z,14.70
2018-05-26T00:26:04.870Z,14.80
2018-05-26T00:28:33.248Z,14.70
2018-05-26T00:31:01.637Z,14.60
2018-05-26T00:33:29.270Z,14.60
2018-05-26T00:35:56.920Z,14.60
2018-05-26T00:38:24.551Z,14.60
2018-05-26T00:40:52.190Z,14.60
2018-05-26T00:43:19.833Z,14.60
2018-05-26T00:45:48.182Z,14.60
2018-05-26T00:48:15.776Z,14.60
2018-05-26T00:50:44.150Z,14.50
2018-05-26T00:53:12.530Z,14.50
2018-05-26T00:55:40.904Z,14.50
2018-05-26T00:58:08.500Z,14.50
2018-05-26T01:00:36.166Z,14.50
2018-05-26T01:03:03.772Z,14.50
2018-05-26T01:05:31.393Z,14.40
2018-05-26T01:07:58.981Z,14.40
2018-05-26T01:10:26.609Z,14.40
2018-05-26T01:12:54.269Z,14.40
2018-05-26T01:15:21.849Z,14.40
2018-05-26T01:17:49.474Z,14.30
2018-05-26T01:20:17.099Z,14.30
2018-05-26T01:22:45.462Z,14.20
2018-05-26T01:25:13.092Z,14.20
2018-05-26T01:27:40.699Z,14.20
2018-05-26T01:30:09.090Z,14.00
2018-05-26T01:32:37.444Z,14.10
2018-05-26T01:35:05.042Z,14.10
2018-05-26T01:37:32.671Z,14.10
2018-05-26T01:40:01.050Z,14.00
2018-05-26T01:42:29.393Z,13.90
2018-05-26T01:44:56.993Z,14.00
2018-05-26T01:47:25.386Z,13.90
2018-05-26T01:49:53.015Z,13.90
2018-05-26T01:52:20.635Z,14.00
2018-05-26T01:54:48.220Z,14.00
2018-05-26T01:57:15.838Z,13.90
2018-05-26T01:59:43.611Z,13.90
2018-05-26T02:02:11.320Z,13.90
2018-05-26T02:04:39.100Z,13.80
2018-05-26T02:07:07.483Z,13.80
2018-05-26T02:09:35.845Z,13.80
2018-05-26T02:12:03.469Z,13.80
2018-05-26T02:14:31.120Z,13.80
2018-05-26T02:16:58.720Z,13.80
2018-05-26T02:19:26.346Z,13.70
2018-05-26T02:21:53.961Z,13.70
2018-05-26T02:24:22.296Z,13.70
2018-05-26T02:26:49.883Z,13.70
2018-05-26T02:29:17.519Z,13.70
2018-05-26T02:31:45.112Z,13.70
2018-05-26T02:34:13.474Z,13.70
2018-05-26T02:36:41.090Z,13.60
2018-05-26T02:39:08.688Z,13.70
2018-05-26T02:41:36.260Z,13.60
2018-05-26T02:44:04.603Z,13.60
2018-05-26T02:46:32.224Z,13.60
2018-05-26T02:48:59.815Z,13.60
2018-05-26T02:51:27.455Z,13.70
2018-05-26T02:56:29.139Z,13.60
2018-05-26T02:58:56.748Z,13.50
2018-05-26T03:01:24.360Z,13.50
2018-05-26T03:03:51.439Z,13.40
2018-05-26T03:06:24.600Z,13.40
2018-05-26T03:08:57.920Z,13.40
2018-05-26T03:11:31.233Z,13.40
2018-05-26T03:14:05.192Z,13.40
2018-05-26T03:16:33.791Z,13.40
2018-05-26T03:19:01.377Z,13.40
2018-05-26T03:21:28.973Z,13.40
2018-05-26T03:23:56.580Z,13.30
2018-05-26T03:26:24.229Z,13.30
2018-05-26T03:28:51.818Z,13.20
2018-05-26T03:31:19.401Z,13.20
2018-05-26T03:33:47.767Z,13.10
2018-05-26T03:36:16.224Z,13.10
2018-05-26T03:38:43.790Z,13.10
2018-05-26T03:41:11.394Z,13.10
2018-05-26T03:43:38.994Z,13.10
2018-05-26T03:46:06.699Z,13.10
2018-05-26T03:48:34.301Z,13.10
2018-05-26T03:51:01.881Z,13.10
2018-05-26T03:53:29.511Z,13.00
2018-05-26T03:56:22.849Z,13.10
2018-05-26T03:59:02.142Z,13.10
2018-05-26T04:01:29.719Z,13.10
2018-05-26T04:03:58.074Z,13.00
2018-05-26T04:06:25.676Z,13.00
2018-05-26T04:08:53.277Z,13.00
2018-05-26T04:11:20.963Z,13.00
2018-05-26T04:13:48.571Z,13.00
2018-05-26T04:16:16.169Z,13.10
2018-05-26T04:18:43.792Z,13.10
2018-05-26T04:21:11.380Z,13.10
2018-05-26T04:23:39.015Z,13.10
2018-05-26T04:26:06.608Z,13.10
2018-05-26T04:28:34.269Z,13.10
2018-05-26T04:31:01.868Z,13.10
2018-05-26T04:33:30.206Z,13.10
2018-05-26T04:35:57.821Z,13.10
2018-05-26T04:38:25.408Z,13.10
2018-05-26T04:40:52.995Z,13.10
2018-05-26T04:43:20.596Z,13.10
2018-05-26T04:45:48.180Z,13.00
2018-05-26T04:48:15.817Z,13.00
2018-05-26T04:50:43.430Z,13.00
2018-05-26T04:53:11.031Z,13.00
2018-05-26T04:55:38.644Z,13.00
2018-05-26T04:58:06.280Z,13.00
2018-05-26T05:00:33.924Z,13.00
2018-05-26T05:03:01.530Z,13.00
2018-05-26T05:05:29.145Z,13.00
2018-05-26T05:07:56.745Z,13.10
2018-05-26T05:10:24.363Z,13.10
2018-05-26T05:12:52.015Z,13.00
2018-05-26T05:15:19.714Z,12.90
2018-05-26T05:17:47.541Z,13.00
2018-05-26T05:20:15.358Z,13.00
2018-05-26T05:22:43.091Z,13.00
2018-05-26T05:25:10.842Z,13.00
2018-05-26T05:27:38.529Z,13.10
2018-05-26T05:30:06.194Z,13.10
2018-05-26T05:32:33.859Z,13.10
2018-05-26T05:35:02.281Z,13.20
2018-05-26T05:37:30.727Z,13.20
2018-05-26T05:39:58.351Z,13.20
2018-05-26T05:42:25.967Z,13.40
2018-05-26T05:44:54.019Z,13.40
2018-05-26T05:47:23.909Z,13.50
2018-05-26T05:49:52.407Z,13.40
2018-05-26T05:52:20.606Z,13.60
2018-05-26T05:54:54.076Z,13.60
2018-05-26T05:57:28.750Z,13.80
2018-05-26T05:59:58.546Z,13.80
2018-05-26T06:02:26.749Z,14.00
2018-05-26T06:04:55.866Z,14.10
2018-05-26T06:07:24.419Z,14.20
2018-05-26T06:09:53.817Z,14.30
2018-05-26T06:12:23.610Z,14.40
2018-05-26T06:14:52.130Z,14.60
2018-05-26T06:17:20.262Z,14.60
2018-05-26T06:19:48.011Z,14.70
2018-05-26T06:22:16.945Z,14.80
2018-05-26T06:24:44.638Z,15.00
2018-05-26T06:27:12.410Z,15.10
2018-05-26T06:29:40.061Z,15.20
2018-05-26T06:32:07.726Z,15.40
2018-05-26T06:34:35.386Z,15.60
2018-05-26T06:37:03.042Z,15.80
2018-05-26T06:39:30.690Z,15.90
2018-05-26T06:41:58.304Z,16.00
2018-05-26T06:44:26.679Z,16.30
2018-05-26T06:46:54.374Z,16.30
2018-05-26T06:49:22.044Z,16.50
2018-05-26T06:51:49.660Z,16.80
2018-05-26T06:54:17.312Z,17.00
2018-05-26T06:56:45.003Z,17.20
2018-05-26T06:59:13.376Z,17.60
2018-05-26T07:01:41.762Z,17.70
2018-05-26T07:04:10.121Z,17.90
2018-05-26T07:06:38.486Z,18.00
2018-05-26T07:09:06.116Z,18.00
2018-05-26T07:11:33.724Z,18.20
2018-05-26T07:14:02.160Z,18.60
2018-05-26T07:16:29.750Z,18.50
2018-05-26T07:18:57.392Z,18.80
2018-05-26T07:21:25.029Z,19.00
2018-05-26T07:23:53.098Z,19.10
2018-05-26T07:26:20.945Z,19.20
2018-05-26T07:28:50.469Z,19.40
2018-05-26T07:31:19.461Z,19.60
2018-05-26T07:33:47.778Z,19.80
2018-05-26T07:36:16.972Z,19.80
2018-05-26T07:38:45.536Z,20.00
2018-05-26T07:41:14.251Z,20.10
2018-05-26T07:43:43.460Z,20.40
2018-05-26T07:46:13.457Z,20.60
2018-05-26T07:48:44.047Z,20.80
2018-05-26T07:51:13.301Z,20.70
2018-05-26T07:53:42.096Z,20.90
2018-05-26T07:56:14.406Z,21.10
2018-05-26T07:58:44.006Z,21.20
2018-05-26T08:01:13.455Z,21.20
2018-05-26T08:03:42.183Z,21.20
2018-05-26T08:06:11.430Z,21.20
2018-05-26T08:08:41.195Z,21.40
2018-05-26T08:11:28.223Z,21.30
2018-05-26T08:13:57.820Z,21.40
2018-05-26T08:16:30.253Z,21.50
2018-05-26T08:19:08.378Z,21.70
2018-05-26T08:21:37.972Z,21.80
2018-05-26T08:24:08.190Z,21.90
2018-05-26T08:26:37.352Z,21.90
2018-05-26T08:29:04.980Z,22.00
2018-05-26T08:31:32.718Z,22.10
2018-05-26T08:34:01.170Z,22.20
2018-05-26T08:36:28.815Z,22.20
2018-05-26T08:38:56.451Z,22.40
2018-05-26T08:41:24.100Z,22.50
2018-05-26T08:43:51.793Z,22.60
2018-05-26T08:46:19.422Z,22.70
2018-05-26T08:48:48.023Z,22.70
2018-05-26T08:51:18.017Z,22.90
2018-05-26T08:53:49.904Z,23.00
2018-05-26T08:56:22.137Z,23.20
2018-05-26T08:58:51.148Z,23.10
2018-05-26T09:01:21.830Z,23.10
2018-05-26T09:03:54.762Z,23.20
2018-05-26T09:06:23.502Z,23.20
2018-05-26T09:08:53.552Z,23.20
2018-05-26T09:11:21.847Z,23.30
2018-05-26T09:13:50.359Z,23.40
2018-05-26T09:16:18.515Z,23.50
2018-05-26T09:18:47.602Z,23.50
2018-05-26T09:21:15.353Z,23.50
2018-05-26T09:23:43.281Z,23.50
2018-05-26T09:26:11.829Z,23.80
2018-05-26T09:28:39.521Z,23.80
2018-05-26T09:31:07.570Z,24.00
2018-05-26T09:33:35.401Z,24.10
2018-05-26T09:36:04.206Z,24.10
2018-05-26T09:38:33.194Z,24.20
2018-05-26T09:41:01.407Z,24.20
2018-05-26T09:43:29.563Z,24.30
2018-05-26T09:45:58.537Z,24.30
2018-05-26T09:48:26.374Z,24.20
2018-05-26T09:50:54.581Z,24.20
2018-05-26T09:53:22.361Z,24.30
2018-05-26T09:55:50.025Z,24.30
2018-05-26T09:58:17.641Z,24.40
2018-05-26T10:00:45.262Z,24.60
2018-05-26T10:03:12.860Z,24.60
2018-05-26T10:05:41.249Z,24.80
2018-05-26T10:08:08.871Z,24.80
2018-05-26T10:10:37.251Z,24.90
2018-05-26T10:13:05.748Z,25.00
2018-05-26T10:15:33.956Z,25.00
2018-05-26T10:18:01.550Z,25.00
2018-05-26T10:20:29.141Z,25.20
2018-05-26T10:22:56.795Z,25.30
2018-05-26T10:25:25.178Z,25.50
2018-05-26T10:27:52.797Z,25.50
2018-05-26T10:30:20.396Z,25.60
2018-05-26T10:32:48.759Z,25.80
2018-05-26T10:35:17.162Z,25.90
2018-05-26T10:37:44.810Z,25.80
2018-05-26T10:40:13.480Z,25.90
2018-05-26T10:42:41.958Z,25.90
2018-05-26T10:45:13.493Z,25.80
2018-05-26T10:47:41.150Z,25.80
2018-05-26T10:50:08.774Z,25.80
2018-05-26T10:52:36.384Z,25.90
2018-05-26T10:55:06.027Z,26.00
2018-05-26T10:57:35.501Z,26.20
2018-05-26T11:00:04.370Z,26.50
2018-05-26T11:02:33.811Z,26.50
2018-05-26T11:05:02.180Z,26.80
2018-05-26T11:07:31.161Z,27.00
2018-05-26T11:09:59.413Z,27.10
2018-05-26T11:12:28.758Z,27.20
2018-05-26T11:14:57.760Z,27.40
2018-05-26T11:17:26.060Z,27.40
2018-05-26T11:19:56.321Z,27.60
2018-05-26T11:22:24.555Z,27.70
2018-05-26T11:24:53.592Z,28.00
2018-05-26T11:27:23.521Z,28.10
2018-05-26T11:29:51.961Z,28.20
2018-05-26T11:32:19.809Z,28.20
2018-05-26T11:34:47.530Z,28.20
2018-05-26T11:37:15.876Z,28.20
2018-05-26T11:39:43.590Z,28.20
2018-05-26T11:42:11.692Z,28.30
2018-05-26T11:44:40.199Z,28.50
2018-05-26T11:47:07.817Z,28.50
2018-05-26T11:49:35.609Z,28.60
2018-05-26T11:52:03.227Z,28.50
2018-05-26T11:54:30.860Z,28.50
2018-05-26T11:56:58.587Z,28.30
2018-05-26T11:59:26.177Z,28.30
2018-05-26T12:01:53.778Z,28.30
2018-05-26T12:04:21.390Z,28.50
2018-05-26T12:06:49.105Z,28.50
2018-05-26T12:09:16.691Z,28.70
2018-05-26T12:11:44.360Z,28.80
2018-05-26T12:14:12.049Z,28.90
2018-05-26T12:16:40.554Z,29.00
2018-05-26T12:19:08.176Z,29.00
2018-05-26T12:21:35.760Z,29.10
2018-05-26T12:24:04.130Z,29.30
2018-05-26T12:26:32.522Z,29.40
2018-05-26T12:29:00.154Z,29.40
2018-05-26T12:31:27.749Z,29.50
2018-05-26T12:33:55.463Z,29.50
2018-05-26T12:36:23.070Z,29.50
2018-05-26T12:38:50.679Z,29.70
2018-05-26T12:41:18.331Z,29.80
2018-05-26T12:43:45.972Z,29.90
2018-05-26T12:46:13.643Z,30.10
2018-05-26T12:48:41.436Z,30.20
2018-05-26T12:51:09.330Z,30.30
2018-05-26T12:53:37.809Z,30.40
2018-05-26T12:56:06.252Z,30.50
2018-05-26T12:58:33.960Z,30.50
2018-05-26T13:01:04.091Z,30.50
2018-05-26T13:03:33.749Z,30.50
2018-05-26T13:06:05.084Z,30.50
2018-05-26T13:08:35.041Z,30.50
2018-05-26T13:11:04.975Z,30.60
2018-05-26T13:13:39.420Z,30.60
2018-05-26T13:16:08.665Z,30.50
2018-05-26T13:18:43.998Z,30.50
2018-05-26T13:21:14.230Z,30.50
2018-05-26T13:23:48.380Z,30.50
2018-05-26T13:26:18.259Z,30.40
2018-05-26T13:28:46.130Z,30.40
2018-05-26T13:31:14.540Z,30.50
2018-05-26T13:33:42.141Z,30.50
2018-05-26T13:36:09.760Z,30.50
2018-05-26T13:38:37.369Z,30.50
2018-05-26T13:41:05.224Z,30.60
2018-05-26T13:43:33.690Z,30.70
2018-05-26T13:46:01.781Z,30.70
2018-05-26T13:48:29.375Z,30.90
2018-05-26T13:50:57.275Z,31.00
2018-05-26T13:53:24.949Z,31.10
2018-05-26T13:55:52.751Z,31.20
2018-05-26T13:58:21.143Z,31.10
2018-05-26T14:00:48.839Z,31.10
2018-05-26T14:03:16.491Z,31.20
2018-05-26T14:05:44.137Z,31.20
2018-05-26T14:08:11.764Z,31.20
2018-05-26T14:10:39.448Z,31.10
2018-05-26T14:13:07.152Z,31.00
2018-05-26T14:15:35.633Z,31.00
2018-05-26T14:18:03.270Z,31.00
2018-05-26T14:20:30.878Z,31.00
2018-05-26T14:22:58.468Z,31.00
2018-05-26T14:25:26.856Z,30.70
2018-05-26T14:27:54.466Z,30.70
2018-05-26T14:30:22.063Z,30.70
2018-05-26T14:32:50.425Z,30.60
2018-05-26T14:35:18.040Z,30.60
2018-05-26T14:37:46.421Z,30.40
2018-05-26T14:40:14.057Z,30.40
2018-05-26T14:42:41.658Z,30.40
2018-05-26T14:45:09.277Z,30.30
2018-05-26T14:47:36.920Z,30.20
2018-05-26T14:50:05.332Z,30.30
2018-05-26T14:52:32.979Z,30.30
2018-05-26T14:55:00.597Z,30.30
2018-05-26T14:57:28.219Z,30.30
2018-05-26T14:59:55.825Z,30.30
2018-05-26T15:02:24.202Z,30.40
2018-05-26T15:04:52.600Z,30.30
2018-05-26T15:07:20.970Z,30.20
2018-05-26T15:09:49.321Z,30.20
2018-05-26T15:12:16.943Z,30.10
2018-05-26T15:14:44.549Z,30.20
2018-05-26T15:17:12.186Z,30.10
2018-05-26T15:19:39.780Z,30.10
2018-05-26T15:22:08.186Z,30.20
2018-05-26T15:24:35.799Z,30.20
2018-05-26T15:27:03.407Z,30.10
2018-05-26T15:29:31.059Z,30.20
2018-05-26T15:32:02.198Z,30.20
2018-05-26T15:34:31.560Z,30.30
2018-05-26T15:36:59.255Z,30.30
2018-05-26T15:39:28.689Z,30.50
2018-05-26T15:41:56.322Z,30.50
2018-05-26T15:44:24.699Z,30.50
2018-05-26T15:46:52.312Z,30.50
2018-05-26T15:49:19.941Z,30.60
2018-05-26T15:51:47.624Z,30.60
2018-05-26T15:54:15.806Z,30.60
2018-05-26T15:56:43.426Z,30.70
2018-05-26T15:59:11.667Z,30.70
2018-05-26T16:01:40.111Z,30.60
2018-05-26T16:04:07.774Z,30.60
2018-05-26T16:06:35.428Z,30.60
2018-05-26T16:09:03.871Z,30.50
2018-05-26T16:11:31.526Z,30.40
2018-05-26T16:13:59.906Z,30.30
2018-05-26T16:16:28.271Z,30.20
2018-05-26T16:18:56.671Z,30.10
2018-05-26T16:21:24.271Z,30.00
2018-05-26T16:23:51.890Z,30.10
2018-05-26T16:26:19.521Z,30.00
2018-05-26T16:28:47.137Z,30.00
2018-05-26T16:31:14.740Z,30.00
2018-05-26T16:33:42.337Z,29.90
2018-05-26T16:36:09.977Z,30.00
2018-05-26T16:38:38.340Z,29.90
2018-05-26T16:41:05.941Z,29.90
2018-05-26T16:43:33.559Z,29.80
2018-05-26T16:46:01.165Z,29.90
2018-05-26T16:48:28.820Z,29.80
2018-05-26T16:50:56.423Z,29.70
2018-05-26T16:53:24.035Z,29.60
2018-05-26T16:55:51.630Z,29.50
2018-05-26T16:58:19.250Z,29.30
2018-05-26T17:00:46.896Z,29.10
2018-05-26T17:03:14.519Z,28.80
2018-05-26T17:05:42.140Z,28.50
2018-05-26T17:08:09.755Z,28.40
2018-05-26T17:10:37.341Z,28.30
2018-05-26T17:13:05.740Z,28.10
2018-05-26T17:15:33.369Z,28.10
2018-05-26T17:18:02.063Z,28.00
2018-05-26T17:20:30.469Z,27.90
2018-05-26T17:22:58.075Z,27.80
2018-05-26T17:25:25.703Z,27.70
2018-05-26T17:27:53.294Z,27.60
2018-05-26T17:30:20.913Z,27.50
2018-05-26T17:32:48.530Z,27.30
2018-05-26T17:35:16.908Z,27.00
2018-05-26T17:37:45.275Z,26.90
2018-05-26T17:40:12.921Z,26.80
2018-05-26T17:42:40.561Z,26.80
2018-05-26T17:45:08.190Z,26.70
2018-05-26T17:47:35.837Z,26.60
2018-05-26T17:50:04.275Z,26.40
2018-05-26T17:52:31.870Z,26.30
2018-05-26T17:55:00.260Z,26.10
2018-05-26T17:57:28.639Z,25.90
2018-05-26T17:59:57.013Z,25.80
2018-05-26T18:02:25.416Z,25.70
2018-05-26T18:04:53.748Z,25.60
2018-05-26T18:07:21.420Z,25.50
2018-05-26T18:09:50.139Z,25.30
2018-05-26T18:12:17.786Z,25.20
2018-05-26T18:14:45.490Z,25.10
2018-05-26T18:17:13.157Z,25.00
2018-05-26T18:19:40.817Z,24.80
2018-05-26T18:22:08.431Z,24.60
2018-05-26T18:24:36.236Z,24.40
2018-05-26T18:27:03.919Z,24.20
2018-05-26T18:29:31.538Z,24.10
2018-05-26T18:32:00.097Z,23.90
2018-05-26T18:34:27.697Z,23.80
2018-05-26T18:36:55.283Z,23.60
2018-05-26T18:39:22.926Z,23.50
2018-05-26T18:41:50.538Z,23.40
2018-05-26T18:44:18.179Z,23.20
2018-05-26T18:46:46.543Z,23.00
2018-05-26T18:49:14.157Z,23.00
2018-05-26T18:51:41.781Z,22.90
2018-05-26T18:54:10.160Z,22.80
2018-05-26T18:56:38.514Z,22.70
2018-05-26T18:59:06.150Z,22.70
2018-05-26T19:01:33.753Z,22.60
2018-05-26T19:04:02.141Z,22.40
2018-05-26T19:06:30.519Z,22.30
2018-05-26T19:08:58.918Z,22.30
2018-05-26T19:11:26.530Z,22.20
2018-05-26T19:13:54.139Z,22.20
2018-05-26T19:16:21.750Z,22.00
2018-05-26T19:18:49.369Z,21.90
2018-05-26T19:21:17.009Z,21.80
2018-05-26T19:23:44.611Z,21.70
2018-05-26T19:26:12.243Z,21.60
2018-05-26T19:28:39.949Z,21.50
2018-05-26T19:31:07.530Z,21.40
2018-05-26T19:33:35.877Z,21.20
2018-05-26T19:36:03.470Z,21.10
2018-05-26T19:38:31.821Z,21.00
2018-05-26T19:40:59.431Z,21.00
2018-05-26T19:43:27.048Z,21.00
2018-05-26T19:45:54.680Z,21.00
2018-05-26T19:48:22.295Z,20.90
2018-05-26T19:50:50.679Z,20.90
2018-05-26T19:53:18.300Z,20.90
2018-05-26T19:55:45.917Z,20.90
2018-05-26T19:58:13.537Z,20.80
2018-05-26T20:00:41.895Z,20.80
2018-05-26T20:03:09.497Z,20.80
2018-05-26T20:05:37.165Z,20.90
2018-05-26T20:08:04.755Z,20.80
2018-05-26T20:10:32.354Z,20.80
2018-05-26T20:13:00.732Z,20.80
2018-05-26T20:15:28.371Z,20.80
2018-05-26T20:17:56.028Z,20.70
2018-05-26T20:20:24.473Z,20.70
2018-05-26T20:22:52.070Z,20.70
2018-05-26T20:25:19.665Z,20.70
2018-05-26T20:27:48.035Z,20.60
2018-05-26T20:30:16.468Z,20.60
2018-05-26T20:32:44.060Z,20.60
2018-05-26T20:35:11.666Z,20.60
2018-05-26T20:37:39.273Z,20.60
2018-05-26T20:40:06.890Z,20.60
2018-05-26T20:42:34.531Z,20.60
2018-05-26T20:45:02.133Z,20.60
2018-05-26T20:47:29.732Z,20.60
2018-05-26T20:49:58.089Z,20.60
2018-05-26T20:52:25.674Z,20.50
2018-05-26T20:54:54.086Z,20.50
2018-05-26T20:57:21.693Z,20.50
2018-05-26T20:59:49.375Z,20.50
2018-05-26T21:02:16.977Z,20.50
2018-05-26T21:04:44.639Z,20.50
2018-05-26T21:07:12.281Z,20.50
2018-05-26T21:09:39.911Z,20.50
2018-05-26T21:12:08.294Z,20.40
2018-05-26T21:14:36.668Z,20.50
2018-05-26T21:17:05.022Z,20.50
2018-05-26T21:19:32.669Z,20.40
2018-05-26T21:22:00.287Z,20.40
2018-05-26T21:24:27.859Z,20.40
2018-05-26T21:26:55.484Z,20.40
2018-05-26T21:29:23.081Z,20.40
2018-05-26T21:31:51.051Z,20.40
2018-05-26T21:34:18.636Z,20.40
2018-05-26T21:36:46.237Z,20.50
2018-05-26T21:39:14.600Z,20.50
2018-05-26T21:41:42.530Z,20.50
2018-05-26T21:44:10.170Z,20.50
2018-05-26T21:46:37.761Z,20.60
2018-05-26T21:49:05.635Z,20.60
2018-05-26T21:51:33.250Z,20.50
2018-05-26T21:54:00.841Z,20.60
2018-05-26T21:56:28.481Z,20.60
2018-05-26T21:58:56.229Z,20.60
2018-05-26T22:01:23.891Z,20.60
2018-05-26T22:03:51.480Z,20.60
2018-05-26T22:06:19.145Z,20.60
2018-05-26T22:08:46.789Z,20.60
2018-05-26T22:11:14.452Z,20.60
2018-05-26T22:13:42.047Z,20.30
2018-05-26T22:16:09.676Z,20.00
2018-05-26T22:18:37.302Z,19.70
2018-05-26T22:21:05.717Z,19.30
2018-05-26T22:23:33.489Z,19.20
2018-05-26T22:26:01.252Z,19.30
2018-05-26T22:28:28.884Z,19.30
2018-05-26T22:30:56.507Z,19.40
2018-05-26T22:33:24.921Z,19.30
2018-05-26T22:35:52.552Z,19.20
2018-05-26T22:38:20.961Z,18.80
2018-05-26T22:40:48.557Z,18.80
2018-05-26T22:43:16.169Z,18.50
2018-05-26T22:45:43.797Z,18.30
2018-05-26T22:48:11.420Z,18.30
2018-05-26T22:50:39.036Z,18.30
2018-05-26T22:53:07.425Z,18.30
2018-05-26T22:55:35.820Z,18.10
2018-05-26T22:58:03.482Z,18.10
2018-05-26T23:00:31.130Z,18.10
2018-05-26T23:02:58.935Z,18.00
2018-05-26T23:05:26.564Z,18.10
2018-05-26T23:07:54.177Z,18.00
2018-05-26T23:10:21.845Z,18.00
2018-05-26T23:12:49.455Z,18.10
2018-05-26T23:15:17.119Z,18.10
2018-05-26T23:17:44.850Z,18.10
2018-05-26T23:20:13.310Z,18.10
2018-05-26T23:22:41.180Z,18.10
2018-05-26T23:25:08.789Z,18.10
2018-05-26T23:27:36.457Z,18.10
2018-05-26T23:30:04.066Z,18.00
2018-05-26T23:32:33.834Z,17.90
2018-05-26T23:35:01.502Z,17.90
2018-05-26T23:37:29.129Z,17.80
2018-05-26T23:39:57.585Z,17.70
2018-05-26T23:42:26.019Z,17.40
2018-05-26T23:44:53.758Z,17.40
2018-05-26T23:47:21.377Z,17.40
2018-05-26T23:49:48.999Z,17.40
2018-05-26T23:52:16.759Z,17.30
2018-05-26T23:54:44.427Z,17.30
2018-05-26T23:57:12.041Z,17.20
2018-05-26T23:59:40.431Z,17.00
